Time;durP1;ratioP1;P1;durP2;ratioP2;P2;SDS_P1;SDS_P2;PMS_P1;PMS_P2;Temp;Humidity;BMP_temperature;BMP_pressure;BME280_temperature;BME280_humidity;BME280_pressure;Samples;Min_cycle;Max_cycle;Signal;HPM_P1;HPM_P2
2023/12/12 00:00:36;;;;;;;2.70;0.73;;;;;;;;;;5074969;28;20464;-79
2023/12/12 00:03:02;;;;;;;1.38;0.80;;;;;;;;;;5075340;28;20375;-79
2023/12/12 00:05:28;;;;;;;0.80;0.80;;;;;;;;;;5074625;28;20374;-79
2023/12/12 00:07:55;;;;;;;1.37;0.80;;;;;;;;;;5075311;28;20371;-79
2023/12/12 00:10:21;;;;;;;1.77;0.90;;;;;;;;;;5075369;28;20375;-79
2023/12/12 00:12:47;;;;;;;1.23;0.80;;;;;;;;;;5075262;28;20395;-79
2023/12/12 00:15:13;;;;;;;3.25;1.17;;;;;;;;;;5074933;28;20380;-79
2023/12/12 00:17:39;;;;;;;1.58;0.90;;;;;;;;;;5074805;28;20416;-79
2023/12/12 00:20:07;;;;;;;1.25;0.90;;;;;;;;;;5074907;28;20471;-79
2023/12/12 00:22:33;;;;;;;1.17;0.95;;;;;;;;;;5075110;28;20403;-79
2023/12/12 00:24:59;;;;;;;0.93;0.70;;;;;;;;;;5074924;28;20449;-79
2023/12/12 00:27:25;;;;;;;1.10;0.80;;;;;;;;;;5074947;28;20372;-79
2023/12/12 00:29:51;;;;;;;1.30;0.77;;;;;;;;;;5074476;28;20379;-79
2023/12/12 00:32:17;;;;;;;1.25;0.70;;;;;;;;;;5074996;28;20437;-79
2023/12/12 00:34:43;;;;;;;1.40;0.60;;;;;;;;;;5074757;28;20462;-79
2023/12/12 00:37:09;;;;;;;1.27;0.77;;;;;;;;;;5074725;28;20403;-79
2023/12/12 00:39:41;;;;;;;1.40;0.50;;;;;;;;;;5075184;28;20412;-78
2023/12/12 00:42:07;;;;;;;2.10;0.70;;;;;;;;;;5074701;28;20414;-79
2023/12/12 00:44:36;;;;;;;1.17;0.57;;;;;;;;;;5075003;28;20371;-79
2023/12/12 00:47:04;;;;;;;1.20;0.90;;;;;;;;;;5074314;28;20739;-79
2023/12/12 00:49:30;;;;;;;1.58;0.80;;;;;;;;;;5074826;28;20522;-79
2023/12/12 00:51:56;;;;;;;1.80;1.70;;;;;;;;;;5074985;28;20885;-79
2023/12/12 00:54:22;;;;;;;4.22;1.70;;;;;;;;;;5078236;28;20387;-79
2023/12/12 00:56:48;;;;;;;3.92;1.80;;;;;;;;;;5077861;28;20399;-79
2023/12/12 00:59:14;;;;;;;3.08;2.20;;;;;;;;;;5079506;28;20403;-79
2023/12/12 01:01:40;;;;;;;2.65;2.22;;;;;;;;;;5058843;28;20404;-81
2023/12/12 01:04:08;;;;;;;3.33;1.90;;;;;;;;;;5066920;28;20441;-80
2023/12/12 01:06:34;;;;;;;3.50;1.92;;;;;;;;;;5058122;28;20843;-80
2023/12/12 01:09:00;;;;;;;2.80;1.85;;;;;;;;;;5058699;28;20382;-80
2023/12/12 01:11:26;;;;;;;2.33;2.13;;;;;;;;;;5058404;28;20781;-80
2023/12/12 01:13:52;;;;;;;2.38;2.17;;;;;;;;;;5058293;28;20782;-80
2023/12/12 01:16:18;;;;;;;2.35;2.15;;;;;;;;;;5058325;28;20381;-80
2023/12/12 01:18:44;;;;;;;1.83;1.70;;;;;;;;;;5057477;28;20381;-80
2023/12/12 01:21:13;;;;;;;1.90;1.80;;;;;;;;;;5057806;28;20404;-80
2023/12/12 01:23:49;;;;;;;1.60;1.50;;;;;;;;;;5057761;28;20472;-80
2023/12/12 01:26:15;;;;;;;1.60;1.50;;;;;;;;;;5057834;28;20819;-80
2023/12/12 01:28:41;;;;;;;1.80;1.70;;;;;;;;;;5058106;28;20871;-80
2023/12/12 01:31:07;;;;;;;2.08;1.60;;;;;;;;;;5057980;28;20396;-80
2023/12/12 01:33:33;;;;;;;2.10;1.90;;;;;;;;;;5058019;28;20447;-80
2023/12/12 01:35:59;;;;;;;2.08;1.88;;;;;;;;;;5058105;28;20467;-80
2023/12/12 01:38:25;;;;;;;2.53;1.80;;;;;;;;;;5058211;28;20830;-80
2023/12/12 01:40:53;;;;;;;2.13;1.92;;;;;;;;;;5057554;28;20424;-80
2023/12/12 01:43:25;;;;;;;1.80;1.70;;;;;;;;;;5057635;28;20441;-80
2023/12/12 01:45:51;;;;;;;2.25;1.65;;;;;;;;;;5057576;28;20373;-80
2023/12/12 01:48:17;;;;;;;2.05;1.80;;;;;;;;;;5057204;28;20428;-80
2023/12/12 01:50:44;;;;;;;1.77;1.67;;;;;;;;;;5058220;28;20381;-80
2023/12/12 01:53:10;;;;;;;2.40;1.92;;;;;;;;;;5057361;28;20743;-80
2023/12/12 01:55:37;;;;;;;2.33;1.98;;;;;;;;;;5057299;28;20396;-80
2023/12/12 01:58:03;;;;;;;2.10;1.90;;;;;;;;;;5057564;28;20460;-80
2023/12/12 02:00:29;;;;;;;2.95;2.50;;;;;;;;;;5070797;28;20387;-80
2023/12/12 02:02:55;;;;;;;2.47;2.28;;;;;;;;;;5077215;28;20430;-80
2023/12/12 02:05:22;;;;;;;3.30;2.53;;;;;;;;;;5076869;28;20780;-81
2023/12/12 02:07:49;;;;;;;2.57;2.37;;;;;;;;;;5077144;28;20427;-80
2023/12/12 02:10:15;;;;;;;2.70;2.50;;;;;;;;;;5076874;28;20383;-80
2023/12/12 02:12:41;;;;;;;2.90;2.70;;;;;;;;;;5076716;28;20396;-80
2023/12/12 02:15:07;;;;;;;3.60;2.60;;;;;;;;;;5077112;28;20410;-80
2023/12/12 02:17:33;;;;;;;3.40;3.10;;;;;;;;;;5076737;28;20482;-80
2023/12/12 02:19:59;;;;;;;2.80;2.60;;;;;;;;;;5077179;28;20384;-80
2023/12/12 02:22:25;;;;;;;2.60;2.40;;;;;;;;;;5076559;28;20406;-80
2023/12/12 02:24:52;;;;;;;2.88;2.50;;;;;;;;;;5076857;28;20400;-80
2023/12/12 02:27:18;;;;;;;3.88;2.90;;;;;;;;;;5077321;28;20383;-80
2023/12/12 02:29:44;;;;;;;3.90;3.38;;;;;;;;;;5076755;28;20379;-80
2023/12/12 02:32:10;;;;;;;4.17;3.77;;;;;;;;;;5077054;28;20388;-80
2023/12/12 02:34:36;;;;;;;3.53;3.22;;;;;;;;;;5076328;28;20391;-80
2023/12/12 02:37:02;;;;;;;3.30;3.00;;;;;;;;;;5076309;28;20462;-80
2023/12/12 02:39:28;;;;;;;2.70;2.50;;;;;;;;;;5076522;28;20445;-80
2023/12/12 02:41:54;;;;;;;1.80;1.70;;;;;;;;;;5075988;28;20403;-80
2023/12/12 02:44:20;;;;;;;1.85;1.38;;;;;;;;;;5076968;28;20913;-80
2023/12/12 02:46:46;;;;;;;1.40;1.30;;;;;;;;;;5076485;28;20477;-80
2023/12/12 02:49:12;;;;;;;2.08;1.70;;;;;;;;;;5076489;28;20864;-80
2023/12/12 02:51:38;;;;;;;2.35;1.27;;;;;;;;;;5057741;28;20396;-80
2023/12/12 02:54:04;;;;;;;1.67;1.30;;;;;;;;;;5076672;28;20469;-80
2023/12/12 02:56:33;;;;;;;2.00;1.20;;;;;;;;;;5076374;28;20884;-80
2023/12/12 02:58:59;;;;;;;1.10;1.00;;;;;;;;;;5075895;28;20437;-80
2023/12/12 03:01:25;;;;;;;1.02;0.90;;;;;;;;;;5077088;28;20406;-80
2023/12/12 03:03:51;;;;;;;1.00;0.90;;;;;;;;;;5075942;28;20390;-80
2023/12/12 03:06:17;;;;;;;1.13;0.82;;;;;;;;;;5076301;28;20380;-80
2023/12/12 03:08:43;;;;;;;1.50;1.00;;;;;;;;;;5072749;28;20828;-80
2023/12/12 03:11:09;;;;;;;1.92;1.17;;;;;;;;;;5076002;28;20376;-80
2023/12/12 03:13:35;;;;;;;2.60;1.08;;;;;;;;;;5075691;28;20391;-80
2023/12/12 03:16:02;;;;;;;1.50;0.77;;;;;;;;;;5075966;28;20376;-80
2023/12/12 03:18:28;;;;;;;0.63;0.63;;;;;;;;;;5075984;28;20454;-80
2023/12/12 03:20:54;;;;;;;0.63;0.60;;;;;;;;;;5075942;28;20431;-80
2023/12/12 03:23:20;;;;;;;0.60;0.60;;;;;;;;;;5075457;28;20372;-80
2023/12/12 03:25:46;;;;;;;0.70;0.60;;;;;;;;;;5076604;28;20376;-80
2023/12/12 03:28:14;;;;;;;1.10;0.60;;;;;;;;;;5076127;28;21000;-80
2023/12/12 03:30:40;;;;;;;0.50;0.50;;;;;;;;;;5075953;28;20459;-80
2023/12/12 03:33:06;;;;;;;0.95;0.70;;;;;;;;;;5075726;28;20375;-80
2023/12/12 03:35:32;;;;;;;0.50;0.50;;;;;;;;;;5075777;28;20395;-80
2023/12/12 03:37:58;;;;;;;0.70;0.70;;;;;;;;;;5075717;28;20405;-80
2023/12/12 03:40:24;;;;;;;1.15;0.80;;;;;;;;;;5076173;28;20390;-80
2023/12/12 03:42:50;;;;;;;1.40;1.25;;;;;;;;;;5076616;28;20371;-80
2023/12/12 03:45:16;;;;;;;2.17;1.98;;;;;;;;;;5075755;28;20384;-80
2023/12/12 03:47:42;;;;;;;1.95;1.70;;;;;;;;;;5075695;28;20518;-80
2023/12/12 03:50:08;;;;;;;2.67;1.90;;;;;;;;;;5075827;28;20418;-80
2023/12/12 03:52:34;;;;;;;2.90;2.03;;;;;;;;;;5075485;28;20376;-80
2023/12/12 03:55:00;;;;;;;2.70;2.15;;;;;;;;;;5075481;28;20394;-80
2023/12/12 03:57:26;;;;;;;2.42;1.65;;;;;;;;;;5075994;28;20384;-80
2023/12/12 03:59:52;;;;;;;2.17;1.60;;;;;;;;;;5075788;28;20461;-80
2023/12/12 04:02:19;;;;;;;1.23;1.10;;;;;;;;;;5076361;28;20399;-80
2023/12/12 04:04:45;;;;;;;4.93;4.43;;;;;;;;;;5076130;28;20368;-80
2023/12/12 04:07:11;;;;;;;1.88;1.73;;;;;;;;;;5075546;28;20471;-80
2023/12/12 04:09:37;;;;;;;0.75;0.70;;;;;;;;;;5076243;28;20379;-81
2023/12/12 04:12:03;;;;;;;1.10;0.70;;;;;;;;;;5075574;28;20372;-80
2023/12/12 04:14:29;;;;;;;0.85;0.40;;;;;;;;;;5075449;28;20386;-80
2023/12/12 04:16:55;;;;;;;0.70;0.40;;;;;;;;;;5075744;28;20392;-80
2023/12/12 04:19:21;;;;;;;0.32;0.32;;;;;;;;;;5075689;28;20380;-80
2023/12/12 04:21:47;;;;;;;0.68;0.50;;;;;;;;;;5075631;28;20865;-81
2023/12/12 04:24:13;;;;;;;0.63;0.40;;;;;;;;;;5076005;28;20383;-81
2023/12/12 04:26:39;;;;;;;0.50;0.50;;;;;;;;;;5075570;28;20826;-80
2023/12/12 04:29:05;;;;;;;0.70;0.60;;;;;;;;;;5079387;28;20380;-80
2023/12/12 04:31:31;;;;;;;1.30;1.17;;;;;;;;;;5079859;28;20462;-81
2023/12/12 04:33:57;;;;;;;1.30;1.00;;;;;;;;;;5079374;28;20382;-80
2023/12/12 04:36:23;;;;;;;0.90;0.80;;;;;;;;;;5079150;28;20375;-80
2023/12/12 04:38:49;;;;;;;1.13;0.90;;;;;;;;;;5078402;28;20380;-80
2023/12/12 04:41:15;;;;;;;0.80;0.80;;;;;;;;;;5078684;28;20408;-81
2023/12/12 04:43:41;;;;;;;1.00;0.82;;;;;;;;;;5079111;28;20383;-81
2023/12/12 04:46:07;;;;;;;0.70;0.70;;;;;;;;;;5078692;28;20375;-81
2023/12/12 04:48:33;;;;;;;0.70;0.70;;;;;;;;;;5078469;28;20423;-80
2023/12/12 04:51:00;;;;;;;1.40;1.30;;;;;;;;;;5079118;28;20414;-81
2023/12/12 04:53:26;;;;;;;1.80;1.13;;;;;;;;;;5078598;28;20383;-80
2023/12/12 04:55:54;;;;;;;1.50;1.40;;;;;;;;;;5078908;28;21835;-80
2023/12/12 04:58:19;;;;;;;0.90;0.80;;;;;;;;;;5078789;28;20384;-81
2023/12/12 05:00:45;;;;;;;0.90;0.90;;;;;;;;;;5078643;28;20376;-81
2023/12/12 05:03:11;;;;;;;1.57;1.20;;;;;;;;;;5077930;28;20403;-80
2023/12/12 05:05:37;;;;;;;1.10;1.00;;;;;;;;;;5078668;28;20379;-81
2023/12/12 05:08:04;;;;;;;1.30;1.20;;;;;;;;;;5065151;28;20388;-80
2023/12/12 05:10:30;;;;;;;1.30;1.10;;;;;;;;;;5058732;28;20373;-81
2023/12/12 05:12:56;;;;;;;1.20;1.10;;;;;;;;;;5058358;28;20615;-80
2023/12/12 05:15:22;;;;;;;1.70;1.10;;;;;;;;;;5058036;28;20731;-80
2023/12/12 05:17:48;;;;;;;0.90;0.90;;;;;;;;;;5058003;28;20460;-81
2023/12/12 05:20:14;;;;;;;1.52;1.02;;;;;;;;;;5058199;28;20751;-81
2023/12/12 05:22:40;;;;;;;1.10;1.00;;;;;;;;;;5057687;28;20401;-81
2023/12/12 05:25:07;;;;;;;1.25;1.15;;;;;;;;;;5058378;28;20386;-81
2023/12/12 05:27:33;;;;;;;1.02;1.02;;;;;;;;;;5057880;28;20381;-81
2023/12/12 05:29:59;;;;;;;0.88;0.85;;;;;;;;;;5057663;28;20419;-81
2023/12/12 05:32:25;;;;;;;1.10;1.00;;;;;;;;;;5058200;28;20381;-81
2023/12/12 05:34:51;;;;;;;1.33;1.23;;;;;;;;;;5057787;28;20382;-80
2023/12/12 05:37:17;;;;;;;0.98;0.90;;;;;;;;;;5057963;28;21002;-80
2023/12/12 05:39:43;;;;;;;1.50;1.00;;;;;;;;;;5057777;28;20374;-81
2023/12/12 05:42:09;;;;;;;1.50;1.00;;;;;;;;;;5057639;28;20879;-81
2023/12/12 05:44:35;;;;;;;1.17;1.05;;;;;;;;;;5057561;28;20420;-81
2023/12/12 05:47:01;;;;;;;1.60;1.50;;;;;;;;;;5057930;28;20521;-81
2023/12/12 05:49:27;;;;;;;1.60;1.50;;;;;;;;;;5057254;28;20386;-81
2023/12/12 05:51:53;;;;;;;1.50;1.40;;;;;;;;;;5057937;28;20389;-81
2023/12/12 05:54:19;;;;;;;0.90;0.90;;;;;;;;;;5057508;28;20378;-81
2023/12/12 05:56:45;;;;;;;1.27;0.90;;;;;;;;;;5057800;28;20863;-81
2023/12/12 05:59:14;;;;;;;1.10;1.00;;;;;;;;;;5057144;28;20473;-81
2023/12/12 06:01:40;;;;;;;1.20;1.10;;;;;;;;;;5057289;28;20401;-81
2023/12/12 06:04:07;;;;;;;2.08;0.90;;;;;;;;;;5055781;28;21000;-81
2023/12/12 06:06:33;;;;;;;0.60;0.60;;;;;;;;;;5092685;28;20394;-81
2023/12/12 06:09:00;;;;;;;0.63;0.63;;;;;;;;;;5096721;28;20370;-81
2023/12/12 06:11:28;;;;;;;1.17;0.70;;;;;;;;;;5097014;28;20871;-81
2023/12/12 06:13:55;;;;;;;0.70;0.70;;;;;;;;;;5097957;28;20374;-81
2023/12/12 06:16:21;;;;;;;0.73;0.73;;;;;;;;;;5097266;28;20385;-81
2023/12/12 06:18:48;;;;;;;1.87;1.00;;;;;;;;;;5097491;28;20378;-81
2023/12/12 06:21:14;;;;;;;1.25;1.00;;;;;;;;;;5096574;28;20401;-81
2023/12/12 06:23:40;;;;;;;0.98;0.98;;;;;;;;;;5097414;28;20370;-81
2023/12/12 06:26:06;;;;;;;1.50;1.37;;;;;;;;;;5079396;28;20397;-81
2023/12/12 06:28:33;;;;;;;1.85;1.75;;;;;;;;;;5097073;28;20856;-81
2023/12/12 06:30:58;;;;;;;2.20;2.10;;;;;;;;;;5097080;28;20408;-81
2023/12/12 06:33:28;;;;;;;2.00;1.90;;;;;;;;;;5096687;28;20385;-81
2023/12/12 06:35:55;;;;;;;1.98;1.88;;;;;;;;;;5095868;28;20370;-81
2023/12/12 06:38:21;;;;;;;2.50;2.30;;;;;;;;;;5096873;28;20382;-81
2023/12/12 06:40:47;;;;;;;2.58;2.38;;;;;;;;;;5096751;28;20450;-81
2023/12/12 06:43:13;;;;;;;2.30;2.10;;;;;;;;;;5097444;28;20855;-81
2023/12/12 06:45:39;;;;;;;2.22;2.03;;;;;;;;;;5096819;28;20378;-81
2023/12/12 06:48:05;;;;;;;2.78;2.40;;;;;;;;;;5096768;28;20492;-81
2023/12/12 06:50:31;;;;;;;2.60;2.40;;;;;;;;;;5096449;28;20386;-81
2023/12/12 06:52:57;;;;;;;2.58;2.38;;;;;;;;;;5096652;28;20386;-81
2023/12/12 06:55:23;;;;;;;2.20;2.00;;;;;;;;;;5088391;28;20517;-81
2023/12/12 06:57:49;;;;;;;2.40;2.20;;;;;;;;;;5076223;28;20380;-81
2023/12/12 07:00:15;;;;;;;3.60;3.40;;;;;;;;;;5072235;28;21166;-81
2023/12/12 07:02:41;;;;;;;3.63;3.42;;;;;;;;;;5075802;28;20411;-81
2023/12/12 07:05:08;;;;;;;4.43;4.13;;;;;;;;;;5075759;28;20467;-81
2023/12/12 07:07:34;;;;;;;4.00;3.70;;;;;;;;;;5077383;28;20786;-81
2023/12/12 07:10:00;;;;;;;4.00;3.63;;;;;;;;;;5076667;28;20412;-81
2023/12/12 07:12:26;;;;;;;3.35;3.15;;;;;;;;;;5076430;28;20422;-81
2023/12/12 07:14:52;;;;;;;4.43;4.10;;;;;;;;;;5075705;28;20458;-81
2023/12/12 07:17:18;;;;;;;5.93;5.53;;;;;;;;;;5076451;28;20380;-81
2023/12/12 07:19:44;;;;;;;6.00;5.50;;;;;;;;;;5075991;28;20455;-81
2023/12/12 07:22:10;;;;;;;5.57;5.15;;;;;;;;;;5075208;28;20411;-81
2023/12/12 07:24:36;;;;;;;5.63;5.07;;;;;;;;;;5076413;28;20387;-81
2023/12/12 07:27:02;;;;;;;5.27;4.90;;;;;;;;;;5075649;28;20414;-81
2023/12/12 07:29:28;;;;;;;5.55;5.05;;;;;;;;;;5076001;28;20841;-81
2023/12/12 07:31:54;;;;;;;4.97;4.65;;;;;;;;;;5075682;28;20388;-81
2023/12/12 07:34:20;;;;;;;5.28;4.97;;;;;;;;;;5075798;28;20910;-81
2023/12/12 07:36:46;;;;;;;7.35;6.85;;;;;;;;;;5076110;28;20863;-81
2023/12/12 07:39:12;;;;;;;6.35;5.85;;;;;;;;;;5075582;28;20376;-81
2023/12/12 07:41:38;;;;;;;5.53;5.13;;;;;;;;;;5075685;28;20401;-81
2023/12/12 07:44:04;;;;;;;5.65;5.25;;;;;;;;;;5076316;28;20400;-81
2023/12/12 07:46:36;;;;;;;6.00;5.60;;;;;;;;;;5074954;28;20379;-81
2023/12/12 07:49:02;;;;;;;6.72;6.22;;;;;;;;;;5076042;28;20375;-81
2023/12/12 07:51:29;;;;;;;6.07;5.68;;;;;;;;;;5075877;28;20387;-81
2023/12/12 07:53:56;;;;;;;6.38;5.97;;;;;;;;;;5075578;28;20375;-81
2023/12/12 07:56:22;;;;;;;6.18;5.78;;;;;;;;;;5076082;28;20424;-81
2023/12/12 07:58:48;;;;;;;11.80;10.90;;;;;;;;;;5075564;28;20418;-81
2023/12/12 08:01:14;;;;;;;10.40;9.50;;;;;;;;;;5075983;28;20450;-81
2023/12/12 08:03:40;;;;;;;8.95;8.25;;;;;;;;;;5079850;28;20377;-81
2023/12/12 08:06:06;;;;;;;9.15;8.45;;;;;;;;;;5080389;28;20401;-81
2023/12/12 08:08:32;;;;;;;8.93;8.23;;;;;;;;;;5080046;28;20455;-81
2023/12/12 08:10:58;;;;;;;8.43;7.82;;;;;;;;;;5080482;28;20376;-81
2023/12/12 08:13:24;;;;;;;8.48;7.88;;;;;;;;;;5079944;28;20424;-82
2023/12/12 08:15:50;;;;;;;7.50;7.00;;;;;;;;;;5080087;28;20407;-82
2023/12/12 08:18:16;;;;;;;8.98;8.20;;;;;;;;;;5079105;28;20443;-82
2023/12/12 08:20:42;;;;;;;8.65;8.05;;;;;;;;;;5079540;28;20379;-82
2023/12/12 08:23:09;;;;;;;8.50;7.90;;;;;;;;;;5079640;28;20396;-81
2023/12/12 08:25:35;;;;;;;8.85;8.13;;;;;;;;;;5079675;28;20733;-81
2023/12/12 08:28:03;;;;;;;9.23;8.53;;;;;;;;;;5079411;28;20426;-81
2023/12/12 08:30:30;;;;;;;8.52;7.82;;;;;;;;;;5079446;28;20384;-81
2023/12/12 08:32:56;;;;;;;7.15;6.65;;;;;;;;;;5078990;28;20517;-81
2023/12/12 08:35:22;;;;;;;7.55;7.00;;;;;;;;;;5079421;28;20438;-81
2023/12/12 08:37:48;;;;;;;6.22;5.72;;;;;;;;;;5078840;28;20387;-81
2023/12/12 08:40:14;;;;;;;6.20;5.80;;;;;;;;;;5060809;28;20390;-81
2023/12/12 08:42:40;;;;;;;6.18;5.78;;;;;;;;;;5078980;28;20399;-81
2023/12/12 08:45:06;;;;;;;7.25;6.65;;;;;;;;;;5079150;28;20425;-81
2023/12/12 08:47:32;;;;;;;7.75;7.10;;;;;;;;;;5078321;28;20893;-81
2023/12/12 08:49:59;;;;;;;8.10;7.50;;;;;;;;;;5078637;28;20371;-81
2023/12/12 08:52:26;;;;;;;10.25;9.38;;;;;;;;;;5078065;28;20391;-81
2023/12/12 08:54:52;;;;;;;9.43;8.73;;;;;;;;;;5077104;28;20429;-82
2023/12/12 08:57:19;;;;;;;9.63;8.82;;;;;;;;;;5060555;28;20415;-82
2023/12/12 08:59:46;;;;;;;12.55;11.50;;;;;;;;;;5058377;28;20739;-81
2023/12/12 09:02:12;;;;;;;12.02;11.13;;;;;;;;;;5058416;28;20901;-81
2023/12/12 09:04:37;;;;;;;9.15;8.45;;;;;;;;;;5058473;28;20377;-81
2023/12/12 09:07:04;;;;;;;8.50;7.88;;;;;;;;;;5069445;28;20472;-81
2023/12/12 09:09:31;;;;;;;7.70;7.10;;;;;;;;;;5078043;28;20372;-81
2023/12/12 09:11:57;;;;;;;11.05;10.15;;;;;;;;;;5078193;28;20387;-81
2023/12/12 09:14:27;;;;;;;8.68;7.97;;;;;;;;;;5077757;28;20384;-81
2023/12/12 09:16:53;;;;;;;8.77;8.07;;;;;;;;;;5077600;28;20802;-81
2023/12/12 09:19:19;;;;;;;6.87;6.37;;;;;;;;;;5077688;28;20380;-81
2023/12/12 09:21:48;;;;;;;8.35;7.65;;;;;;;;;;5078342;28;20847;-81
2023/12/12 09:24:14;;;;;;;6.72;6.13;;;;;;;;;;5078291;28;20379;-81
2023/12/12 09:26:40;;;;;;;6.60;5.90;;;;;;;;;;5077605;28;20384;-81
2023/12/12 09:29:06;;;;;;;5.80;5.30;;;;;;;;;;5077646;28;20387;-81
2023/12/12 09:31:34;;;;;;;7.03;6.43;;;;;;;;;;5077449;28;20413;-81
2023/12/12 09:34:00;;;;;;;8.23;7.43;;;;;;;;;;5078370;28;20403;-82
2023/12/12 09:36:26;;;;;;;8.52;7.72;;;;;;;;;;5077252;28;20449;-82
2023/12/12 09:38:52;;;;;;;8.52;7.82;;;;;;;;;;5078355;28;20380;-82
2023/12/12 09:41:22;;;;;;;8.52;7.72;;;;;;;;;;5078112;28;20399;-82
2023/12/12 09:43:48;;;;;;;8.97;8.17;;;;;;;;;;5077560;28;20429;-82
2023/12/12 09:46:16;;;;;;;8.93;8.13;;;;;;;;;;5077723;28;20799;-81
2023/12/12 09:48:45;;;;;;;7.93;7.22;;;;;;;;;;5077195;28;20407;-82
2023/12/12 09:51:14;;;;;;;7.20;6.60;;;;;;;;;;5077361;28;20391;-82
2023/12/12 09:53:46;;;;;;;6.50;5.95;;;;;;;;;;5077434;28;20380;-82
2023/12/12 09:56:13;;;;;;;5.05;4.65;;;;;;;;;;5077575;28;20371;-82
2023/12/12 09:58:39;;;;;;;5.50;5.10;;;;;;;;;;5077457;28;20862;-82
2023/12/12 10:01:06;;;;;;;5.63;5.13;;;;;;;;;;5077431;28;20415;-82
2023/12/12 10:03:32;;;;;;;5.40;5.00;;;;;;;;;;5077323;28;20409;-82
2023/12/12 10:06:03;;;;;;;5.80;5.30;;;;;;;;;;5077132;28;20737;-81
2023/12/12 10:08:29;;;;;;;5.40;5.00;;;;;;;;;;5077046;28;20372;-81
2023/12/12 10:10:55;;;;;;;5.60;5.20;;;;;;;;;;5076766;28;20797;-81
2023/12/12 10:13:21;;;;;;;5.50;5.00;;;;;;;;;;5058438;28;20418;-81
2023/12/12 10:15:47;;;;;;;5.20;4.80;;;;;;;;;;5076893;28;20765;-81
2023/12/12 10:18:13;;;;;;;4.80;4.40;;;;;;;;;;5076217;28;20410;-82
2023/12/12 10:20:39;;;;;;;5.13;4.72;;;;;;;;;;5076206;28;20379;-82
2023/12/12 10:23:05;;;;;;;5.88;5.07;;;;;;;;;;5075676;28;20765;-82
2023/12/12 10:25:32;;;;;;;4.83;4.43;;;;;;;;;;5074937;28;20523;-82
2023/12/12 10:27:58;;;;;;;5.28;4.63;;;;;;;;;;5075684;28;20376;-82
2023/12/12 10:30:26;;;;;;;6.22;5.72;;;;;;;;;;5076705;28;20467;-82
2023/12/12 10:32:53;;;;;;;5.68;5.25;;;;;;;;;;5076348;28;20884;-81
2023/12/12 10:35:23;;;;;;;5.50;5.10;;;;;;;;;;5076523;28;20387;-82
2023/12/12 10:37:52;;;;;;;5.88;5.38;;;;;;;;;;5076430;28;20425;-82
2023/12/12 10:40:22;;;;;;;5.72;5.25;;;;;;;;;;5076016;28;20368;-82
2023/12/12 10:42:49;;;;;;;5.80;5.30;;;;;;;;;;5075684;28;20396;-82
2023/12/12 10:45:15;;;;;;;5.75;5.25;;;;;;;;;;5075804;28;20395;-82
2023/12/12 10:47:48;;;;;;;5.45;4.95;;;;;;;;;;5076646;28;20403;-82
2023/12/12 10:50:15;;;;;;;5.47;5.07;;;;;;;;;;5075902;28;20734;-82
2023/12/12 10:52:43;;;;;;;5.57;5.13;;;;;;;;;;5075974;28;20387;-82
2023/12/12 10:55:10;;;;;;;6.07;5.57;;;;;;;;;;5076061;28;20391;-82
2023/12/12 10:57:42;;;;;;;5.90;5.40;;;;;;;;;;5076822;28;20435;-82
2023/12/12 11:00:11;;;;;;;5.80;5.30;;;;;;;;;;5062064;28;20394;-83
2023/12/12 11:02:39;;;;;;;6.00;5.50;;;;;;;;;;5056019;28;20409;-82
2023/12/12 11:05:05;;;;;;;6.57;5.97;;;;;;;;;;5056247;28;20413;-82
2023/12/12 11:07:33;;;;;;;6.15;5.65;;;;;;;;;;5056476;28;20374;-83
2023/12/12 11:09:59;;;;;;;5.82;5.32;;;;;;;;;;5055992;28;20413;-83
2023/12/12 11:12:26;;;;;;;6.35;5.82;;;;;;;;;;5062284;28;20734;-81
2023/12/12 11:14:53;;;;;;;6.32;5.80;;;;;;;;;;5076889;28;20465;-82
2023/12/12 11:17:19;;;;;;;5.65;5.22;;;;;;;;;;5076294;28;20376;-82
2023/12/12 11:19:45;;;;;;;5.57;5.07;;;;;;;;;;5076071;28;20466;-81
2023/12/12 11:22:31;;;;;;;5.60;5.10;;;;;;;;;;5076481;28;20433;-81
2023/12/12 11:25:01;;;;;;;6.03;5.53;;;;;;;;;;5076156;28;20371;-81
2023/12/12 11:27:28;;;;;;;5.20;4.80;;;;;;;;;;5076301;28;20811;-81
2023/12/12 11:29:55;;;;;;;4.80;4.30;;;;;;;;;;5076107;28;20382;-81
2023/12/12 11:32:24;;;;;;;4.50;4.20;;;;;;;;;;5076142;28;20410;-82
2023/12/12 11:34:53;;;;;;;4.40;4.10;;;;;;;;;;5075578;28;20384;-81
2023/12/12 11:37:19;;;;;;;6.47;5.93;;;;;;;;;;5075798;28;20387;-82
2023/12/12 11:39:49;;;;;;;4.25;3.85;;;;;;;;;;5075688;28;20386;-81
2023/12/12 11:42:20;;;;;;;4.30;3.90;;;;;;;;;;5075647;28;20407;-82
2023/12/12 11:44:47;;;;;;;4.40;4.07;;;;;;;;;;5076291;28;20714;-82
2023/12/12 11:47:17;;;;;;;4.13;3.83;;;;;;;;;;5076117;28;20396;-81
2023/12/12 11:49:47;;;;;;;4.40;4.00;;;;;;;;;;5075855;28;20368;-81
2023/12/12 11:52:32;;;;;;;3.97;3.67;;;;;;;;;;5075673;28;20395;-81
2023/12/12 11:54:58;;;;;;;3.90;3.60;;;;;;;;;;5076176;28;20402;-83
2023/12/12 11:57:25;;;;;;;3.90;3.60;;;;;;;;;;5075738;28;20387;-82
2023/12/12 11:59:52;;;;;;;3.70;3.40;;;;;;;;;;5075732;28;20396;-82
2023/12/12 12:02:18;;;;;;;3.75;3.45;;;;;;;;;;5075735;28;20435;-82
2023/12/12 12:04:44;;;;;;;3.38;3.10;;;;;;;;;;5074645;28;20372;-82
2023/12/12 12:07:10;;;;;;;3.50;3.20;;;;;;;;;;5076625;28;20375;-81
2023/12/12 12:09:36;;;;;;;4.15;3.75;;;;;;;;;;5076154;28;20372;-81
2023/12/12 12:12:08;;;;;;;5.30;4.80;;;;;;;;;;5075950;28;20380;-81
2023/12/12 12:14:35;;;;;;;4.60;4.20;;;;;;;;;;5076298;28;20380;-81
2023/12/12 12:17:01;;;;;;;3.83;3.35;;;;;;;;;;5076113;28;20387;-81
2023/12/12 12:19:28;;;;;;;3.53;3.23;;;;;;;;;;5075666;28;20462;-81
2023/12/12 12:21:54;;;;;;;3.88;3.58;;;;;;;;;;5075913;28;20404;-81
2023/12/12 12:24:20;;;;;;;3.63;3.42;;;;;;;;;;5075787;28;20433;-81
2023/12/12 12:26:47;;;;;;;3.47;3.17;;;;;;;;;;5075840;28;20383;-81
2023/12/12 12:29:13;;;;;;;3.58;3.28;;;;;;;;;;5075650;28;20376;-81
2023/12/12 12:31:39;;;;;;;3.80;3.50;;;;;;;;;;5073779;28;20508;-81
2023/12/12 12:34:20;;;;;;;4.15;3.33;;;;;;;;;;5074999;28;20415;-81
2023/12/12 12:36:46;;;;;;;3.97;3.60;;;;;;;;;;5075183;28;20379;-81
2023/12/12 12:39:19;;;;;;;3.67;3.38;;;;;;;;;;5075788;28;20438;-81
2023/12/12 12:41:48;;;;;;;3.78;3.10;;;;;;;;;;5075275;28;20442;-81
2023/12/12 12:44:14;;;;;;;3.38;2.83;;;;;;;;;;5075184;28;20379;-81
2023/12/12 12:46:50;;;;;;;4.05;3.65;;;;;;;;;;5075121;28;20384;-81
2023/12/12 12:49:16;;;;;;;5.05;4.10;;;;;;;;;;5078395;28;20388;-81
2023/12/12 12:51:42;;;;;;;3.83;3.47;;;;;;;;;;5079219;28;20866;-82
2023/12/12 12:54:09;;;;;;;3.10;2.80;;;;;;;;;;5079942;28;20383;-82
2023/12/12 12:56:35;;;;;;;3.17;2.60;;;;;;;;;;5078236;28;20375;-81
2023/12/12 12:59:01;;;;;;;2.35;2.15;;;;;;;;;;5079238;28;20433;-81
2023/12/12 13:01:27;;;;;;;2.50;2.30;;;;;;;;;;5078310;28;20928;-82
2023/12/12 13:03:53;;;;;;;2.55;2.35;;;;;;;;;;5075167;28;20418;-81
2023/12/12 13:06:19;;;;;;;3.20;2.00;;;;;;;;;;5078438;28;20382;-81
2023/12/12 13:08:45;;;;;;;2.13;2.03;;;;;;;;;;5078477;28;20857;-81
2023/12/12 13:11:11;;;;;;;2.28;2.08;;;;;;;;;;5078501;28;20410;-82
2023/12/12 13:13:37;;;;;;;2.00;1.60;;;;;;;;;;5078385;28;20742;-82
2023/12/12 13:16:05;;;;;;;1.67;1.58;;;;;;;;;;5079099;28;20380;-82
2023/12/12 13:18:31;;;;;;;3.60;1.80;;;;;;;;;;5078123;28;20380;-82
2023/12/12 13:20:57;;;;;;;1.63;1.52;;;;;;;;;;5078082;28;20451;-82
2023/12/12 13:23:23;;;;;;;1.60;1.30;;;;;;;;;;5077889;28;20406;-82
2023/12/12 13:25:49;;;;;;;1.35;1.25;;;;;;;;;;5077916;28;20380;-82
2023/12/12 13:28:15;;;;;;;1.25;1.15;;;;;;;;;;5078030;28;20376;-82
2023/12/12 13:30:41;;;;;;;1.95;1.40;;;;;;;;;;5078101;28;20825;-82
2023/12/12 13:33:09;;;;;;;1.58;1.30;;;;;;;;;;5078368;28;20391;-82
2023/12/12 13:35:35;;;;;;;2.37;1.40;;;;;;;;;;5078012;28;20904;-82
2023/12/12 13:38:02;;;;;;;1.90;1.60;;;;;;;;;;5077850;28;20395;-82
2023/12/12 13:40:28;;;;;;;2.25;1.73;;;;;;;;;;5077819;28;20415;-82
2023/12/12 13:42:54;;;;;;;2.20;1.88;;;;;;;;;;5077554;28;20399;-82
2023/12/12 13:45:20;;;;;;;2.22;1.95;;;;;;;;;;5078024;28;20368;-82
2023/12/12 13:47:46;;;;;;;4.38;2.47;;;;;;;;;;5077684;28;20807;-82
2023/12/12 13:50:12;;;;;;;3.53;2.58;;;;;;;;;;5077844;28;20368;-82
2023/12/12 13:52:38;;;;;;;2.90;2.60;;;;;;;;;;5077479;28;20431;-82
2023/12/12 13:55:06;;;;;;;3.38;2.45;;;;;;;;;;5077933;28;20380;-82
2023/12/12 13:57:32;;;;;;;3.38;2.70;;;;;;;;;;5077851;28;20438;-82
2023/12/12 13:59:58;;;;;;;2.80;2.20;;;;;;;;;;5077391;28;20392;-82
2023/12/12 14:02:24;;;;;;;3.08;2.15;;;;;;;;;;5077755;28;20447;-82
2023/12/12 14:04:50;;;;;;;4.07;2.45;;;;;;;;;;5077874;28;20384;-82
2023/12/12 14:07:18;;;;;;;2.30;1.55;;;;;;;;;;5076357;28;20376;-82
2023/12/12 14:09:44;;;;;;;2.07;1.87;;;;;;;;;;5077276;28;20711;-82
2023/12/12 14:12:11;;;;;;;2.05;1.85;;;;;;;;;;5076809;28;20378;-82
2023/12/12 14:14:37;;;;;;;2.05;1.85;;;;;;;;;;5077023;28;20391;-82
2023/12/12 14:17:03;;;;;;;2.25;1.80;;;;;;;;;;5076186;28;20380;-82
2023/12/12 14:19:29;;;;;;;2.60;1.80;;;;;;;;;;5076445;28;20478;-82
2023/12/12 14:21:55;;;;;;;1.60;1.50;;;;;;;;;;5075774;28;20403;-82
2023/12/12 14:24:21;;;;;;;2.30;1.60;;;;;;;;;;5075355;28;20372;-82
2023/12/12 14:26:47;;;;;;;1.88;1.48;;;;;;;;;;5074614;28;20459;-82
2023/12/12 14:29:13;;;;;;;1.42;1.17;;;;;;;;;;5074727;28;20415;-82
2023/12/12 14:31:39;;;;;;;1.40;1.25;;;;;;;;;;5074414;28;20383;-82
2023/12/12 14:34:05;;;;;;;2.00;1.90;;;;;;;;;;5074114;28;20375;-82
2023/12/12 14:36:31;;;;;;;2.90;1.90;;;;;;;;;;5074227;28;20403;-82
2023/12/12 14:38:59;;;;;;;1.73;1.50;;;;;;;;;;5073964;28;20384;-82